sensor_id;sensor_type;location;lat;lon;timestamp;temperature;humidity
8565;DHT22;4320;51.498;6.556;2023-06-10T00:00:43;23.20;1.00
8565;DHT22;4320;51.498;6.556;2023-06-10T00:03:10;23.10;1.00
8565;DHT22;4320;51.498;6.556;2023-06-10T00:05:36;23.10;1.00
8565;DHT22;4320;51.498;6.556;2023-06-10T00:08:04;23.10;1.00
8565;DHT22;4320;51.498;6.556;2023-06-10T00:10:35;23.20;1.00
8565;DHT22;4320;51.498;6.556;2023-06-10T00:13:05;23.20;1.00
8565;DHT22;4320;51.498;6.556;2023-06-10T00:15:34;23.10;1.00
8565;DHT22;4320;51.498;6.556;2023-06-10T00:18:00;23.00;1.00
8565;DHT22;4320;51.498;6.556;2023-06-10T00:20:29;23.00;1.00
8565;DHT22;4320;51.498;6.556;2023-06-10T00:22:55;23.00;1.00
8565;DHT22;4320;51.498;6.556;2023-06-10T00:25:22;23.00;1.00
8565;DHT22;4320;51.498;6.556;2023-06-10T00:27:48;23.00;1.00
8565;DHT22;4320;51.498;6.556;2023-06-10T00:30:14;23.00;1.00
8565;DHT22;4320;51.498;6.556;2023-06-10T00:32:40;23.00;1.00
8565;DHT22;4320;51.498;6.556;2023-06-10T00:35:06;23.10;1.00
8565;DHT22;4320;51.498;6.556;2023-06-10T00:37:33;23.10;1.00
8565;DHT22;4320;51.498;6.556;2023-06-10T00:40:00;23.20;1.00
8565;DHT22;4320;51.498;6.556;2023-06-10T00:42:25;23.10;1.00
8565;DHT22;4320;51.498;6.556;2023-06-10T00:44:51;23.10;1.00
8565;DHT22;4320;51.498;6.556;2023-06-10T00:47:17;23.00;1.00
8565;DHT22;4320;51.498;6.556;2023-06-10T00:49:44;23.00;1.00
8565;DHT22;4320;51.498;6.556;2023-06-10T00:52:10;23.00;1.00
8565;DHT22;4320;51.498;6.556;2023-06-10T00:54:37;23.00;1.00
8565;DHT22;4320;51.498;6.556;2023-06-10T00:57:03;22.80;1.00
8565;DHT22;4320;51.498;6.556;2023-06-10T00:59:29;22.70;1.00
8565;DHT22;4320;51.498;6.556;2023-06-10T01:01:56;22.70;1.00
8565;DHT22;4320;51.498;6.556;2023-06-10T01:04:22;22.60;1.00
8565;DHT22;4320;51.498;6.556;2023-06-10T01:12:05;22.70;1.00
8565;DHT22;4320;51.498;6.556;2023-06-10T01:14:35;22.60;1.00
8565;DHT22;4320;51.498;6.556;2023-06-10T01:17:01;22.50;1.00
8565;DHT22;4320;51.498;6.556;2023-06-10T01:19:28;22.40;1.00
8565;DHT22;4320;51.498;6.556;2023-06-10T01:21:56;22.30;1.00
8565;DHT22;4320;51.498;6.556;2023-06-10T01:24:26;22.30;1.00
8565;DHT22;4320;51.498;6.556;2023-06-10T01:26:53;22.40;1.00
8565;DHT22;4320;51.498;6.556;2023-06-10T01:29:45;22.30;1.00
8565;DHT22;4320;51.498;6.556;2023-06-10T01:32:18;22.30;1.00
8565;DHT22;4320;51.498;6.556;2023-06-10T01:34:47;22.40;1.00
8565;DHT22;4320;51.498;6.556;2023-06-10T01:37:17;22.40;1.00
8565;DHT22;4320;51.498;6.556;2023-06-10T01:39:43;22.40;1.00
8565;DHT22;4320;51.498;6.556;2023-06-10T01:42:11;22.40;1.00
8565;DHT22;4320;51.498;6.556;2023-06-10T01:44:39;22.40;1.00
8565;DHT22;4320;51.498;6.556;2023-06-10T01:47:05;22.40;1.00
8565;DHT22;4320;51.498;6.556;2023-06-10T01:49:30;22.40;1.00
8565;DHT22;4320;51.498;6.556;2023-06-10T01:51:56;22.30;1.00
8565;DHT22;4320;51.498;6.556;2023-06-10T01:54:22;22.20;1.00
8565;DHT22;4320;51.498;6.556;2023-06-10T01:56:47;22.20;1.00
8565;DHT22;4320;51.498;6.556;2023-06-10T01:59:13;22.30;1.00
8565;DHT22;4320;51.498;6.556;2023-06-10T02:01:38;22.20;1.00
8565;DHT22;4320;51.498;6.556;2023-06-10T02:04:04;22.20;1.00
8565;DHT22;4320;51.498;6.556;2023-06-10T02:06:29;22.20;1.00
8565;DHT22;4320;51.498;6.556;2023-06-10T02:08:55;22.10;1.00
8565;DHT22;4320;51.498;6.556;2023-06-10T02:11:21;22.20;1.00
8565;DHT22;4320;51.498;6.556;2023-06-10T02:13:47;22.00;1.00
8565;DHT22;4320;51.498;6.556;2023-06-10T02:16:12;22.00;1.00
8565;DHT22;4320;51.498;6.556;2023-06-10T02:18:41;22.00;1.00
8565;DHT22;4320;51.498;6.556;2023-06-10T02:21:08;22.00;1.00
8565;DHT22;4320;51.498;6.556;2023-06-10T02:23:34;21.80;1.00
8565;DHT22;4320;51.498;6.556;2023-06-10T02:26:00;21.70;1.00
8565;DHT22;4320;51.498;6.556;2023-06-10T02:28:26;21.80;1.00
8565;DHT22;4320;51.498;6.556;2023-06-10T02:30:51;21.70;1.00
8565;DHT22;4320;51.498;6.556;2023-06-10T02:33:17;21.70;1.00
8565;DHT22;4320;51.498;6.556;2023-06-10T02:35:43;21.70;1.00
8565;DHT22;4320;51.498;6.556;2023-06-10T02:38:09;21.60;1.00
8565;DHT22;4320;51.498;6.556;2023-06-10T02:40:35;21.60;1.00
8565;DHT22;4320;51.498;6.556;2023-06-10T02:43:00;21.60;1.00
8565;DHT22;4320;51.498;6.556;2023-06-10T02:45:26;21.50;1.00
8565;DHT22;4320;51.498;6.556;2023-06-10T02:47:51;21.50;1.00
8565;DHT22;4320;51.498;6.556;2023-06-10T02:50:17;21.50;1.00
8565;DHT22;4320;51.498;6.556;2023-06-10T02:52:43;21.50;1.00
8565;DHT22;4320;51.498;6.556;2023-06-10T02:55:09;21.50;1.00
8565;DHT22;4320;51.498;6.556;2023-06-10T02:57:35;21.50;1.00
8565;DHT22;4320;51.498;6.556;2023-06-10T03:00:00;21.40;1.00
8565;DHT22;4320;51.498;6.556;2023-06-10T03:02:36;21.40;1.00
8565;DHT22;4320;51.498;6.556;2023-06-10T03:05:04;21.30;1.00
8565;DHT22;4320;51.498;6.556;2023-06-10T03:07:30;21.40;1.00
8565;DHT22;4320;51.498;6.556;2023-06-10T03:09:56;21.40;1.00
8565;DHT22;4320;51.498;6.556;2023-06-10T03:12:22;21.20;1.00
8565;DHT22;4320;51.498;6.556;2023-06-10T03:14:47;21.10;1.00
8565;DHT22;4320;51.498;6.556;2023-06-10T03:17:13;21.10;1.00
8565;DHT22;4320;51.498;6.556;2023-06-10T03:19:38;21.10;1.00
8565;DHT22;4320;51.498;6.556;2023-06-10T03:24:34;21.10;1.00
8565;DHT22;4320;51.498;6.556;2023-06-10T03:27:01;21.10;1.00
8565;DHT22;4320;51.498;6.556;2023-06-10T03:29:27;21.10;1.00
8565;DHT22;4320;51.498;6.556;2023-06-10T03:31:53;21.10;1.00
8565;DHT22;4320;51.498;6.556;2023-06-10T03:34:18;20.90;1.00
8565;DHT22;4320;51.498;6.556;2023-06-10T03:36:44;20.90;1.00
8565;DHT22;4320;51.498;6.556;2023-06-10T03:39:10;20.90;1.00
8565;DHT22;4320;51.498;6.556;2023-06-10T03:41:35;21.10;1.00
8565;DHT22;4320;51.498;6.556;2023-06-10T03:44:01;21.10;1.00
8565;DHT22;4320;51.498;6.556;2023-06-10T03:46:27;21.10;1.00
8565;DHT22;4320;51.498;6.556;2023-06-10T03:48:52;21.10;1.00
8565;DHT22;4320;51.498;6.556;2023-06-10T03:51:18;21.10;1.00
8565;DHT22;4320;51.498;6.556;2023-06-10T03:53:43;20.90;1.00
8565;DHT22;4320;51.498;6.556;2023-06-10T03:56:12;20.90;1.00
8565;DHT22;4320;51.498;6.556;2023-06-10T03:58:37;20.90;1.00
8565;DHT22;4320;51.498;6.556;2023-06-10T04:01:03;20.80;1.00
8565;DHT22;4320;51.498;6.556;2023-06-10T04:03:28;21.00;1.00
8565;DHT22;4320;51.498;6.556;2023-06-10T04:05:54;20.70;1.00
8565;DHT22;4320;51.498;6.556;2023-06-10T04:08:20;20.60;1.00
8565;DHT22;4320;51.498;6.556;2023-06-10T04:10:46;20.70;1.00
8565;DHT22;4320;51.498;6.556;2023-06-10T04:13:11;20.80;1.00
8565;DHT22;4320;51.498;6.556;2023-06-10T04:15:37;20.80;1.00
8565;DHT22;4320;51.498;6.556;2023-06-10T04:18:02;21.00;1.00
8565;DHT22;4320;51.498;6.556;2023-06-10T04:20:28;21.10;1.00
8565;DHT22;4320;51.498;6.556;2023-06-10T04:22:54;21.10;1.00
8565;DHT22;4320;51.498;6.556;2023-06-10T04:25:20;21.20;1.00
8565;DHT22;4320;51.498;6.556;2023-06-10T04:27:45;21.10;1.00
8565;DHT22;4320;51.498;6.556;2023-06-10T04:30:12;21.40;1.00
8565;DHT22;4320;51.498;6.556;2023-06-10T04:32:37;21.90;1.00
8565;DHT22;4320;51.498;6.556;2023-06-10T04:35:03;22.40;1.00
8565;DHT22;4320;51.498;6.556;2023-06-10T04:37:29;22.90;1.00
8565;DHT22;4320;51.498;6.556;2023-06-10T04:39:54;23.30;1.00
8565;DHT22;4320;51.498;6.556;2023-06-10T04:42:20;23.30;1.00
8565;DHT22;4320;51.498;6.556;2023-06-10T04:44:46;23.00;1.00
8565;DHT22;4320;51.498;6.556;2023-06-10T04:47:12;22.60;1.00
8565;DHT22;4320;51.498;6.556;2023-06-10T04:49:37;22.30;1.00
8565;DHT22;4320;51.498;6.556;2023-06-10T04:52:03;22.30;1.00
8565;DHT22;4320;51.498;6.556;2023-06-10T04:54:30;22.20;1.00
8565;DHT22;4320;51.498;6.556;2023-06-10T04:56:55;22.00;1.00
8565;DHT22;4320;51.498;6.556;2023-06-10T04:59:21;22.00;1.00
8565;DHT22;4320;51.498;6.556;2023-06-10T05:01:47;21.90;1.00
8565;DHT22;4320;51.498;6.556;2023-06-10T05:04:12;22.00;1.00
8565;DHT22;4320;51.498;6.556;2023-06-10T05:06:38;22.20;1.00
8565;DHT22;4320;51.498;6.556;2023-06-10T05:09:03;22.20;1.00
8565;DHT22;4320;51.498;6.556;2023-06-10T05:11:29;22.10;1.00
8565;DHT22;4320;51.498;6.556;2023-06-10T05:13:55;22.20;1.00
8565;DHT22;4320;51.498;6.556;2023-06-10T05:16:20;22.20;1.00
8565;DHT22;4320;51.498;6.556;2023-06-10T05:18:46;22.10;1.00
8565;DHT22;4320;51.498;6.556;2023-06-10T05:21:15;22.10;1.00
8565;DHT22;4320;51.498;6.556;2023-06-10T05:23:41;22.10;1.00
8565;DHT22;4320;51.498;6.556;2023-06-10T05:26:06;22.30;1.00
8565;DHT22;4320;51.498;6.556;2023-06-10T05:28:32;22.70;1.00
8565;DHT22;4320;51.498;6.556;2023-06-10T05:30:57;22.70;1.00
8565;DHT22;4320;51.498;6.556;2023-06-10T05:33:23;22.60;1.00
8565;DHT22;4320;51.498;6.556;2023-06-10T05:35:49;22.60;1.00
8565;DHT22;4320;51.498;6.556;2023-06-10T05:38:14;22.90;1.00
8565;DHT22;4320;51.498;6.556;2023-06-10T05:40:40;22.80;1.00
8565;DHT22;4320;51.498;6.556;2023-06-10T05:43:05;22.50;1.00
8565;DHT22;4320;51.498;6.556;2023-06-10T05:45:31;22.50;1.00
8565;DHT22;4320;51.498;6.556;2023-06-10T05:47:57;22.50;1.00
8565;DHT22;4320;51.498;6.556;2023-06-10T05:50:24;22.50;1.00
8565;DHT22;4320;51.498;6.556;2023-06-10T05:52:49;22.60;1.00
8565;DHT22;4320;51.498;6.556;2023-06-10T05:55:15;22.50;1.00
8565;DHT22;4320;51.498;6.556;2023-06-10T05:57:44;22.60;1.00
8565;DHT22;4320;51.498;6.556;2023-06-10T06:00:10;22.70;1.00
8565;DHT22;4320;51.498;6.556;2023-06-10T06:02:35;22.50;1.00
8565;DHT22;4320;51.498;6.556;2023-06-10T06:05:01;22.50;1.00
8565;DHT22;4320;51.498;6.556;2023-06-10T06:07:27;22.50;1.00
8565;DHT22;4320;51.498;6.556;2023-06-10T06:09:52;22.40;1.00
8565;DHT22;4320;51.498;6.556;2023-06-10T06:12:18;22.40;1.00
8565;DHT22;4320;51.498;6.556;2023-06-10T06:14:43;22.40;1.00
8565;DHT22;4320;51.498;6.556;2023-06-10T06:17:10;22.40;1.00
8565;DHT22;4320;51.498;6.556;2023-06-10T06:19:35;22.50;1.00
8565;DHT22;4320;51.498;6.556;2023-06-10T06:22:01;22.70;1.00
8565;DHT22;4320;51.498;6.556;2023-06-10T06:24:29;22.80;1.00
8565;DHT22;4320;51.498;6.556;2023-06-10T06:26:55;22.80;1.00
8565;DHT22;4320;51.498;6.556;2023-06-10T06:29:20;22.80;1.00
8565;DHT22;4320;51.498;6.556;2023-06-10T06:31:46;23.00;1.00
8565;DHT22;4320;51.498;6.556;2023-06-10T06:34:12;23.10;1.00
8565;DHT22;4320;51.498;6.556;2023-06-10T06:36:37;23.10;1.00
8565;DHT22;4320;51.498;6.556;2023-06-10T06:39:03;23.10;1.00
8565;DHT22;4320;51.498;6.556;2023-06-10T06:41:28;23.30;1.00
8565;DHT22;4320;51.498;6.556;2023-06-10T06:43:55;23.20;1.00
8565;DHT22;4320;51.498;6.556;2023-06-10T06:46:20;23.10;1.00
8565;DHT22;4320;51.498;6.556;2023-06-10T06:48:47;23.40;1.00
8565;DHT22;4320;51.498;6.556;2023-06-10T06:51:13;23.50;1.00
8565;DHT22;4320;51.498;6.556;2023-06-10T06:53:39;23.50;1.00
8565;DHT22;4320;51.498;6.556;2023-06-10T06:56:13;23.40;1.00
8565;DHT22;4320;51.498;6.556;2023-06-10T06:58:38;23.50;1.00
8565;DHT22;4320;51.498;6.556;2023-06-10T07:01:05;23.50;1.00
8565;DHT22;4320;51.498;6.556;2023-06-10T07:03:30;23.60;1.00
8565;DHT22;4320;51.498;6.556;2023-06-10T07:05:57;23.90;1.00
8565;DHT22;4320;51.498;6.556;2023-06-10T07:08:23;24.00;1.00
8565;DHT22;4320;51.498;6.556;2023-06-10T07:10:48;24.10;1.00
8565;DHT22;4320;51.498;6.556;2023-06-10T07:13:14;24.20;1.00
8565;DHT22;4320;51.498;6.556;2023-06-10T07:15:40;24.10;1.00
8565;DHT22;4320;51.498;6.556;2023-06-10T07:18:06;24.30;1.00
8565;DHT22;4320;51.498;6.556;2023-06-10T07:20:31;24.40;1.00
8565;DHT22;4320;51.498;6.556;2023-06-10T07:22:57;24.50;1.00
8565;DHT22;4320;51.498;6.556;2023-06-10T07:25:22;24.50;1.00
8565;DHT22;4320;51.498;6.556;2023-06-10T07:27:48;24.40;1.00
8565;DHT22;4320;51.498;6.556;2023-06-10T07:30:14;24.50;1.00
8565;DHT22;4320;51.498;6.556;2023-06-10T07:32:39;24.70;1.00
8565;DHT22;4320;51.498;6.556;2023-06-10T07:35:09;24.70;1.00
8565;DHT22;4320;51.498;6.556;2023-06-10T07:37:36;24.70;1.00
8565;DHT22;4320;51.498;6.556;2023-06-10T07:40:02;24.50;1.00
8565;DHT22;4320;51.498;6.556;2023-06-10T07:42:27;24.70;1.00
8565;DHT22;4320;51.498;6.556;2023-06-10T07:44:53;25.00;1.00
8565;DHT22;4320;51.498;6.556;2023-06-10T07:47:18;25.10;1.00
8565;DHT22;4320;51.498;6.556;2023-06-10T07:49:44;25.20;1.00
8565;DHT22;4320;51.498;6.556;2023-06-10T07:52:10;25.20;1.00
8565;DHT22;4320;51.498;6.556;2023-06-10T07:54:35;25.10;1.00
8565;DHT22;4320;51.498;6.556;2023-06-10T07:57:01;25.20;1.00
8565;DHT22;4320;51.498;6.556;2023-06-10T07:59:26;25.50;1.00
8565;DHT22;4320;51.498;6.556;2023-06-10T08:01:53;26.10;1.00
8565;DHT22;4320;51.498;6.556;2023-06-10T08:04:18;26.40;1.00
8565;DHT22;4320;51.498;6.556;2023-06-10T08:06:44;26.40;1.00
8565;DHT22;4320;51.498;6.556;2023-06-10T08:09:09;26.30;1.00
8565;DHT22;4320;51.498;6.556;2023-06-10T08:11:35;26.50;1.00
8565;DHT22;4320;51.498;6.556;2023-06-10T08:14:01;26.30;1.00
8565;DHT22;4320;51.498;6.556;2023-06-10T08:16:26;26.10;1.00
8565;DHT22;4320;51.498;6.556;2023-06-10T08:18:52;26.20;1.00
8565;DHT22;4320;51.498;6.556;2023-06-10T08:21:18;26.20;1.00
8565;DHT22;4320;51.498;6.556;2023-06-10T08:23:44;26.30;1.00
8565;DHT22;4320;51.498;6.556;2023-06-10T08:26:10;26.40;1.00
8565;DHT22;4320;51.498;6.556;2023-06-10T08:28:36;26.30;1.00
8565;DHT22;4320;51.498;6.556;2023-06-10T08:31:01;26.70;1.00
8565;DHT22;4320;51.498;6.556;2023-06-10T08:33:27;26.70;1.00
8565;DHT22;4320;51.498;6.556;2023-06-10T08:35:52;26.50;1.00
8565;DHT22;4320;51.498;6.556;2023-06-10T08:38:18;26.50;1.00
8565;DHT22;4320;51.498;6.556;2023-06-10T08:40:44;26.60;1.00
8565;DHT22;4320;51.498;6.556;2023-06-10T08:43:39;26.60;1.00
8565;DHT22;4320;51.498;6.556;2023-06-10T08:46:08;26.80;1.00
8565;DHT22;4320;51.498;6.556;2023-06-10T08:48:35;26.70;1.00
8565;DHT22;4320;51.498;6.556;2023-06-10T08:51:04;26.70;1.00
8565;DHT22;4320;51.498;6.556;2023-06-10T08:53:32;27.00;1.00
8565;DHT22;4320;51.498;6.556;2023-06-10T08:56:01;27.30;1.00
8565;DHT22;4320;51.498;6.556;2023-06-10T08:58:28;27.30;1.00
8565;DHT22;4320;51.498;6.556;2023-06-10T09:00:54;27.30;1.00
8565;DHT22;4320;51.498;6.556;2023-06-10T09:03:21;27.30;1.00
8565;DHT22;4320;51.498;6.556;2023-06-10T09:05:47;27.40;1.00
8565;DHT22;4320;51.498;6.556;2023-06-10T09:08:15;27.40;1.00
8565;DHT22;4320;51.498;6.556;2023-06-10T09:10:41;27.40;1.00
8565;DHT22;4320;51.498;6.556;2023-06-10T09:13:07;27.40;1.00
8565;DHT22;4320;51.498;6.556;2023-06-10T09:15:32;27.30;1.00
8565;DHT22;4320;51.498;6.556;2023-06-10T09:17:59;27.40;1.00
8565;DHT22;4320;51.498;6.556;2023-06-10T09:20:25;27.30;1.00
8565;DHT22;4320;51.498;6.556;2023-06-10T09:22:51;27.20;1.00
8565;DHT22;4320;51.498;6.556;2023-06-10T09:25:17;27.30;1.00
8565;DHT22;4320;51.498;6.556;2023-06-10T09:27:50;27.40;1.00
8565;DHT22;4320;51.498;6.556;2023-06-10T09:30:32;27.40;1.00
8565;DHT22;4320;51.498;6.556;2023-06-10T09:33:02;27.20;1.00
8565;DHT22;4320;51.498;6.556;2023-06-10T09:35:29;27.30;1.00
8565;DHT22;4320;51.498;6.556;2023-06-10T09:37:59;27.30;1.00
8565;DHT22;4320;51.498;6.556;2023-06-10T09:40:25;27.30;1.00
8565;DHT22;4320;51.498;6.556;2023-06-10T09:42:56;27.30;1.00
8565;DHT22;4320;51.498;6.556;2023-06-10T09:45:23;27.40;1.00
8565;DHT22;4320;51.498;6.556;2023-06-10T09:47:53;27.40;1.00
8565;DHT22;4320;51.498;6.556;2023-06-10T09:50:19;27.40;1.00
8565;DHT22;4320;51.498;6.556;2023-06-10T09:52:46;27.40;1.00
8565;DHT22;4320;51.498;6.556;2023-06-10T09:55:11;27.50;1.00
8565;DHT22;4320;51.498;6.556;2023-06-10T09:57:37;27.70;1.00
8565;DHT22;4320;51.498;6.556;2023-06-10T10:00:09;27.50;1.00
8565;DHT22;4320;51.498;6.556;2023-06-10T10:02:52;27.60;1.00
8565;DHT22;4320;51.498;6.556;2023-06-10T10:05:20;27.90;1.00
8565;DHT22;4320;51.498;6.556;2023-06-10T10:07:47;27.90;1.00
8565;DHT22;4320;51.498;6.556;2023-06-10T10:10:14;27.90;1.00
8565;DHT22;4320;51.498;6.556;2023-06-10T10:12:41;27.90;1.00
8565;DHT22;4320;51.498;6.556;2023-06-10T10:15:11;28.20;1.00
8565;DHT22;4320;51.498;6.556;2023-06-10T10:18:00;28.40;1.00
8565;DHT22;4320;51.498;6.556;2023-06-10T10:20:31;28.50;1.00
8565;DHT22;4320;51.498;6.556;2023-06-10T10:22:59;28.70;1.00
8565;DHT22;4320;51.498;6.556;2023-06-10T10:25:41;28.50;1.00
8565;DHT22;4320;51.498;6.556;2023-06-10T10:28:09;28.70;1.00
8565;DHT22;4320;51.498;6.556;2023-06-10T10:30:59;29.30;1.00
8565;DHT22;4320;51.498;6.556;2023-06-10T10:33:40;29.60;1.00
8565;DHT22;4320;51.498;6.556;2023-06-10T10:36:07;29.50;1.00
8565;DHT22;4320;51.498;6.556;2023-06-10T10:38:34;29.40;1.00
8565;DHT22;4320;51.498;6.556;2023-06-10T10:41:01;29.30;1.00
8565;DHT22;4320;51.498;6.556;2023-06-10T10:43:28;29.20;1.00
8565;DHT22;4320;51.498;6.556;2023-06-10T10:46:01;29.20;1.00
8565;DHT22;4320;51.498;6.556;2023-06-10T10:48:33;29.10;1.00
8565;DHT22;4320;51.498;6.556;2023-06-10T10:51:00;29.00;1.00
8565;DHT22;4320;51.498;6.556;2023-06-10T10:53:25;29.00;1.00
8565;DHT22;4320;51.498;6.556;2023-06-10T10:56:09;29.10;1.00
8565;DHT22;4320;51.498;6.556;2023-06-10T10:58:37;29.10;1.00
8565;DHT22;4320;51.498;6.556;2023-06-10T11:01:14;29.10;1.00
8565;DHT22;4320;51.498;6.556;2023-06-10T11:03:46;28.90;1.00
8565;DHT22;4320;51.498;6.556;2023-06-10T11:06:17;29.10;1.00
8565;DHT22;4320;51.498;6.556;2023-06-10T11:11:25;29.20;1.00
8565;DHT22;4320;51.498;6.556;2023-06-10T11:16:41;29.40;1.00
8565;DHT22;4320;51.498;6.556;2023-06-10T11:19:08;29.30;1.00
8565;DHT22;4320;51.498;6.556;2023-06-10T11:22:06;29.50;1.00
8565;DHT22;4320;51.498;6.556;2023-06-10T11:24:31;29.80;1.00
8565;DHT22;4320;51.498;6.556;2023-06-10T11:27:15;29.90;1.00
8565;DHT22;4320;51.498;6.556;2023-06-10T11:29:56;30.20;1.00
8565;DHT22;4320;51.498;6.556;2023-06-10T11:32:22;30.60;1.00
8565;DHT22;4320;51.498;6.556;2023-06-10T11:34:52;30.80;1.00
8565;DHT22;4320;51.498;6.556;2023-06-10T11:37:18;31.20;1.00
8565;DHT22;4320;51.498;6.556;2023-06-10T11:39:44;31.60;1.00
8565;DHT22;4320;51.498;6.556;2023-06-10T11:42:11;31.90;1.00
8565;DHT22;4320;51.498;6.556;2023-06-10T11:44:36;32.30;1.00
8565;DHT22;4320;51.498;6.556;2023-06-10T11:47:03;32.30;1.00
8565;DHT22;4320;51.498;6.556;2023-06-10T11:49:29;32.80;1.00
8565;DHT22;4320;51.498;6.556;2023-06-10T11:51:54;32.80;1.00
8565;DHT22;4320;51.498;6.556;2023-06-10T11:54:20;31.80;1.00
8565;DHT22;4320;51.498;6.556;2023-06-10T11:56:47;32.10;1.00
8565;DHT22;4320;51.498;6.556;2023-06-10T11:59:14;32.50;1.00
8565;DHT22;4320;51.498;6.556;2023-06-10T12:01:44;32.60;1.00
8565;DHT22;4320;51.498;6.556;2023-06-10T12:04:12;32.80;1.00
8565;DHT22;4320;51.498;6.556;2023-06-10T12:06:50;32.70;1.00
8565;DHT22;4320;51.498;6.556;2023-06-10T12:09:24;33.10;1.00
8565;DHT22;4320;51.498;6.556;2023-06-10T12:12:03;32.70;1.00
8565;DHT22;4320;51.498;6.556;2023-06-10T12:14:58;32.80;1.00
8565;DHT22;4320;51.498;6.556;2023-06-10T12:19:55;33.10;1.00
8565;DHT22;4320;51.498;6.556;2023-06-10T12:22:21;33.00;1.00
8565;DHT22;4320;51.498;6.556;2023-06-10T12:25:05;32.70;1.00
8565;DHT22;4320;51.498;6.556;2023-06-10T12:27:33;32.90;1.00
8565;DHT22;4320;51.498;6.556;2023-06-10T12:29:59;33.30;1.00
8565;DHT22;4320;51.498;6.556;2023-06-10T12:35:05;33.30;1.00
8565;DHT22;4320;51.498;6.556;2023-06-10T12:37:31;33.30;1.00
8565;DHT22;4320;51.498;6.556;2023-06-10T12:40:01;33.30;1.00
8565;DHT22;4320;51.498;6.556;2023-06-10T12:42:37;33.60;1.00
8565;DHT22;4320;51.498;6.556;2023-06-10T12:45:04;33.30;1.00
8565;DHT22;4320;51.498;6.556;2023-06-10T12:47:35;32.90;1.00
8565;DHT22;4320;51.498;6.556;2023-06-10T12:50:02;32.80;1.00
8565;DHT22;4320;51.498;6.556;2023-06-10T12:52:28;33.20;1.00
8565;DHT22;4320;51.498;6.556;2023-06-10T12:54:54;33.50;1.00
8565;DHT22;4320;51.498;6.556;2023-06-10T12:57:21;33.50;1.00
8565;DHT22;4320;51.498;6.556;2023-06-10T12:59:47;33.30;1.00
8565;DHT22;4320;51.498;6.556;2023-06-10T13:02:19;32.90;1.00
8565;DHT22;4320;51.498;6.556;2023-06-10T13:04:46;32.90;1.00
8565;DHT22;4320;51.498;6.556;2023-06-10T13:07:12;32.80;1.00
8565;DHT22;4320;51.498;6.556;2023-06-10T13:09:37;33.00;1.00
8565;DHT22;4320;51.498;6.556;2023-06-10T13:12:03;33.10;1.00
8565;DHT22;4320;51.498;6.556;2023-06-10T13:14:30;33.00;1.00
8565;DHT22;4320;51.498;6.556;2023-06-10T13:16:56;33.10;1.00
8565;DHT22;4320;51.498;6.556;2023-06-10T13:19:21;33.20;1.00
8565;DHT22;4320;51.498;6.556;2023-06-10T13:21:48;32.70;1.00
8565;DHT22;4320;51.498;6.556;2023-06-10T13:24:13;32.50;1.00
8565;DHT22;4320;51.498;6.556;2023-06-10T13:26:39;32.60;1.00
8565;DHT22;4320;51.498;6.556;2023-06-10T13:29:05;32.30;1.00
8565;DHT22;4320;51.498;6.556;2023-06-10T13:31:30;32.00;1.00
8565;DHT22;4320;51.498;6.556;2023-06-10T13:33:57;32.00;1.00
8565;DHT22;4320;51.498;6.556;2023-06-10T13:36:23;32.00;1.00
8565;DHT22;4320;51.498;6.556;2023-06-10T13:38:49;32.00;1.00
8565;DHT22;4320;51.498;6.556;2023-06-10T13:41:15;32.00;1.00
8565;DHT22;4320;51.498;6.556;2023-06-10T13:43:41;31.90;1.00
8565;DHT22;4320;51.498;6.556;2023-06-10T13:46:07;31.60;1.00
8565;DHT22;4320;51.498;6.556;2023-06-10T13:48:32;31.60;1.00
8565;DHT22;4320;51.498;6.556;2023-06-10T13:50:58;31.60;1.00
8565;DHT22;4320;51.498;6.556;2023-06-10T13:53:24;31.40;1.00
8565;DHT22;4320;51.498;6.556;2023-06-10T13:55:50;31.30;1.00
8565;DHT22;4320;51.498;6.556;2023-06-10T13:58:16;31.20;1.00
8565;DHT22;4320;51.498;6.556;2023-06-10T14:00:41;31.00;1.00
8565;DHT22;4320;51.498;6.556;2023-06-10T14:03:07;30.70;1.00
8565;DHT22;4320;51.498;6.556;2023-06-10T14:05:32;30.70;1.00
8565;DHT22;4320;51.498;6.556;2023-06-10T14:07:59;30.70;1.00
8565;DHT22;4320;51.498;6.556;2023-06-10T14:10:24;30.80;1.00
8565;DHT22;4320;51.498;6.556;2023-06-10T14:12:50;30.80;1.00
8565;DHT22;4320;51.498;6.556;2023-06-10T14:15:16;30.80;1.00
8565;DHT22;4320;51.498;6.556;2023-06-10T14:17:42;30.80;1.00
8565;DHT22;4320;51.498;6.556;2023-06-10T14:20:08;30.70;1.00
8565;DHT22;4320;51.498;6.556;2023-06-10T14:22:34;30.80;1.00
8565;DHT22;4320;51.498;6.556;2023-06-10T14:24:59;30.80;1.00
8565;DHT22;4320;51.498;6.556;2023-06-10T14:27:25;30.70;1.00
8565;DHT22;4320;51.498;6.556;2023-06-10T14:29:51;30.80;1.00
8565;DHT22;4320;51.498;6.556;2023-06-10T14:32:16;30.70;1.00
8565;DHT22;4320;51.498;6.556;2023-06-10T14:34:42;30.90;1.00
8565;DHT22;4320;51.498;6.556;2023-06-10T14:37:10;31.10;1.00
8565;DHT22;4320;51.498;6.556;2023-06-10T14:39:35;31.20;1.00
8565;DHT22;4320;51.498;6.556;2023-06-10T14:42:01;31.10;1.00
8565;DHT22;4320;51.498;6.556;2023-06-10T14:44:27;30.90;1.00
8565;DHT22;4320;51.498;6.556;2023-06-10T14:46:52;30.90;1.00
8565;DHT22;4320;51.498;6.556;2023-06-10T14:49:18;30.90;1.00
8565;DHT22;4320;51.498;6.556;2023-06-10T14:51:43;31.00;1.00
8565;DHT22;4320;51.498;6.556;2023-06-10T14:54:10;30.70;1.00
8565;DHT22;4320;51.498;6.556;2023-06-10T14:56:35;30.70;1.00
8565;DHT22;4320;51.498;6.556;2023-06-10T14:59:01;30.80;1.00
8565;DHT22;4320;51.498;6.556;2023-06-10T15:01:27;30.80;1.00
8565;DHT22;4320;51.498;6.556;2023-06-10T15:03:52;30.60;1.00
8565;DHT22;4320;51.498;6.556;2023-06-10T15:06:18;30.60;1.00
8565;DHT22;4320;51.498;6.556;2023-06-10T15:08:46;30.40;1.00
8565;DHT22;4320;51.498;6.556;2023-06-10T15:11:14;30.50;1.00
8565;DHT22;4320;51.498;6.556;2023-06-10T15:13:40;30.50;1.00
8565;DHT22;4320;51.498;6.556;2023-06-10T15:16:05;30.40;1.00
8565;DHT22;4320;51.498;6.556;2023-06-10T15:18:32;30.30;1.00
8565;DHT22;4320;51.498;6.556;2023-06-10T15:20:57;30.40;1.00
8565;DHT22;4320;51.498;6.556;2023-06-10T15:23:23;30.30;1.00
8565;DHT22;4320;51.498;6.556;2023-06-10T15:25:48;30.30;1.00
8565;DHT22;4320;51.498;6.556;2023-06-10T15:28:14;30.30;1.00
8565;DHT22;4320;51.498;6.556;2023-06-10T15:30:40;30.40;1.00
8565;DHT22;4320;51.498;6.556;2023-06-10T15:33:05;30.50;1.00
8565;DHT22;4320;51.498;6.556;2023-06-10T15:35:32;30.40;1.00
8565;DHT22;4320;51.498;6.556;2023-06-10T15:37:58;30.50;1.00
8565;DHT22;4320;51.498;6.556;2023-06-10T15:40:23;30.40;1.00
8565;DHT22;4320;51.498;6.556;2023-06-10T15:42:49;30.40;1.00
8565;DHT22;4320;51.498;6.556;2023-06-10T15:45:15;30.30;1.00
8565;DHT22;4320;51.498;6.556;2023-06-10T15:47:40;30.40;1.00
8565;DHT22;4320;51.498;6.556;2023-06-10T15:50:08;30.40;1.00
8565;DHT22;4320;51.498;6.556;2023-06-10T15:52:33;30.40;1.00
8565;DHT22;4320;51.498;6.556;2023-06-10T15:54:59;30.50;1.00
8565;DHT22;4320;51.498;6.556;2023-06-10T15:57:25;30.60;1.00
8565;DHT22;4320;51.498;6.556;2023-06-10T15:59:50;30.60;1.00
8565;DHT22;4320;51.498;6.556;2023-06-10T16:02:16;30.70;1.00
8565;DHT22;4320;51.498;6.556;2023-06-10T16:04:42;30.70;1.00
8565;DHT22;4320;51.498;6.556;2023-06-10T16:07:07;30.60;1.00
8565;DHT22;4320;51.498;6.556;2023-06-10T16:09:33;30.30;1.00
8565;DHT22;4320;51.498;6.556;2023-06-10T16:11:59;30.20;1.00
8565;DHT22;4320;51.498;6.556;2023-06-10T16:14:25;30.20;1.00
8565;DHT22;4320;51.498;6.556;2023-06-10T16:16:50;30.30;1.00
8565;DHT22;4320;51.498;6.556;2023-06-10T16:19:16;30.40;1.00
8565;DHT22;4320;51.498;6.556;2023-06-10T16:21:41;30.60;1.00
8565;DHT22;4320;51.498;6.556;2023-06-10T16:24:10;30.50;1.00
8565;DHT22;4320;51.498;6.556;2023-06-10T16:26:36;30.60;1.00
8565;DHT22;4320;51.498;6.556;2023-06-10T16:29:02;30.60;1.00
8565;DHT22;4320;51.498;6.556;2023-06-10T16:31:28;30.60;1.00
8565;DHT22;4320;51.498;6.556;2023-06-10T16:33:53;30.60;1.00